Los Angeles, CA

9:07 AM PDT on August 04, 2015 (GMT -0700)
Natural History Museum | | Change Station
CLOSE
Current Station
Personal Weather Station
Location: Los Angeles, CA
Elevation: 207 ft
Nearby Weather Stations

Elev 207 ft 34.02 °N, 118.29 °W | Updated 8 seconds ago

Clear
Clear
73.0 °F
Feels Like 75 °F
N
0.0
Wind Variable Wind from WNW
Gusts 0.0 mph

Today
High -- | Low -- °F
--% Chance of Precip.
Yesterday
High -- | Low -- °F
Precip. -- in
6:06 AM 7:51 PM
Waning Gibbous, 76% visible
Pressure 29.91 in
Visibility 10.0 miles
Clouds Clear
Heat Index 75 °F
Dew Point 64 °F
Humidity 73%
Rainfall 0.00 in
Snow Depth Not available.
UV 3 out of 12
Pollen 4.00 out of 12
Air Quality Not available.
Flu Activity Not available.
METAR KCQT 041547Z AUTO 00000KT 10SM CLR 23/17 A2992 RMK AO2 SLP128 T02330167

More Conditions Fewer Conditions

Pressure 29.91 in
Visibility 10.0 miles
Clouds Clear
Heat Index 75 °F
Dew Point 64 °F
Humidity 73%
Rainfall 0.00 in
Snow Depth Not available.
UV 3 out of 12
Pollen 4.00 out of 12
Air Quality Not available.
Flu Activity Not available.
METAR KCQT 041547Z AUTO 00000KT 10SM CLR 23/17 A2992 RMK AO2 SLP128 T02330167

More Conditions Fewer Conditions

10-Day Weather Forecast

×

Almanac

Astronomy

Aug. 04, 2015 Rise Set
Actual Time
Civil Twilight
Nautical Twilight
Astronomical Twilight
Moon
Length of Visible Light
Length of Day
Tomorrow will be .
, % of the Moon is Illuminated

Today's Extremes

State Highs State Lows

Community

WunderPhotos

Upload Photos

1,843,912 photos uploaded!

WunderBlogs® & News

Nearby

Air Quality

  Air Quality AQ Index Pollutant
Not available.

Snow Depth

Station Depth Elevation

Earthquake Activity

City Distance Mag. Time & Date
Minimum magnitude displayed is 2.5.

Coastal Water Temperatures

Place Temperature

Stations

Nearby Weather Stations

Station Location Temp. Windchill Dew Point Humidity Wind Precip. Elev Updated Type